sensor_id;sensor_type;location;lat;lon;timestamp;P1;durP1;ratioP1;P2;durP2;ratioP2
10653;SDS011;5375;51.250;6.776;2024-01-30T00:01:44;3.77;;;3.10;;
10653;SDS011;5375;51.250;6.776;2024-01-30T00:04:10;3.73;;;2.93;;
10653;SDS011;5375;51.250;6.776;2024-01-30T00:06:36;3.60;;;2.67;;
10653;SDS011;5375;51.250;6.776;2024-01-30T00:09:01;5.73;;;3.50;;
10653;SDS011;5375;51.250;6.776;2024-01-30T00:11:27;4.37;;;2.87;;
10653;SDS011;5375;51.250;6.776;2024-01-30T00:13:53;4.73;;;3.03;;
10653;SDS011;5375;51.250;6.776;2024-01-30T00:16:23;4.20;;;3.00;;
10653;SDS011;5375;51.250;6.776;2024-01-30T00:18:49;4.03;;;3.00;;
10653;SDS011;5375;51.250;6.776;2024-01-30T00:21:16;3.87;;;2.90;;
10653;SDS011;5375;51.250;6.776;2024-01-30T00:23:41;3.17;;;2.70;;
10653;SDS011;5375;51.250;6.776;2024-01-30T00:26:07;3.33;;;2.93;;
10653;SDS011;5375;51.250;6.776;2024-01-30T00:28:32;3.53;;;2.93;;
10653;SDS011;5375;51.250;6.776;2024-01-30T00:30:58;6.07;;;2.93;;
10653;SDS011;5375;51.250;6.776;2024-01-30T00:33:23;3.13;;;2.83;;
10653;SDS011;5375;51.250;6.776;2024-01-30T00:35:49;5.23;;;3.70;;
10653;SDS011;5375;51.250;6.776;2024-01-30T00:38:15;4.50;;;3.30;;
10653;SDS011;5375;51.250;6.776;2024-01-30T00:40:40;4.17;;;2.90;;
10653;SDS011;5375;51.250;6.776;2024-01-30T00:43:06;4.73;;;2.90;;
10653;SDS011;5375;51.250;6.776;2024-01-30T00:45:32;5.97;;;3.43;;
10653;SDS011;5375;51.250;6.776;2024-01-30T00:47:57;3.37;;;3.07;;
10653;SDS011;5375;51.250;6.776;2024-01-30T00:50:23;4.40;;;3.10;;
10653;SDS011;5375;51.250;6.776;2024-01-30T00:52:49;4.63;;;3.17;;
10653;SDS011;5375;51.250;6.776;2024-01-30T00:55:14;3.30;;;2.80;;
10653;SDS011;5375;51.250;6.776;2024-01-30T00:57:40;4.20;;;3.03;;
10653;SDS011;5375;51.250;6.776;2024-01-30T01:00:06;3.53;;;2.73;;
10653;SDS011;5375;51.250;6.776;2024-01-30T01:02:34;4.37;;;3.00;;
10653;SDS011;5375;51.250;6.776;2024-01-30T01:05:00;3.17;;;2.87;;
10653;SDS011;5375;51.250;6.776;2024-01-30T01:07:26;5.07;;;3.13;;
10653;SDS011;5375;51.250;6.776;2024-01-30T01:09:51;4.40;;;3.10;;
10653;SDS011;5375;51.250;6.776;2024-01-30T01:12:17;4.70;;;3.23;;
10653;SDS011;5375;51.250;6.776;2024-01-30T01:14:42;3.57;;;3.00;;
10653;SDS011;5375;51.250;6.776;2024-01-30T01:17:08;4.70;;;3.43;;
10653;SDS011;5375;51.250;6.776;2024-01-30T01:19:34;7.03;;;3.20;;
10653;SDS011;5375;51.250;6.776;2024-01-30T01:21:59;3.60;;;3.30;;
10653;SDS011;5375;51.250;6.776;2024-01-30T01:24:25;3.77;;;3.23;;
10653;SDS011;5375;51.250;6.776;2024-01-30T01:26:50;4.97;;;3.30;;
10653;SDS011;5375;51.250;6.776;2024-01-30T01:29:16;6.07;;;3.17;;
10653;SDS011;5375;51.250;6.776;2024-01-30T01:31:41;5.70;;;3.70;;
10653;SDS011;5375;51.250;6.776;2024-01-30T01:34:11;3.97;;;3.40;;
10653;SDS011;5375;51.250;6.776;2024-01-30T01:36:37;5.30;;;3.60;;
10653;SDS011;5375;51.250;6.776;2024-01-30T01:39:02;3.40;;;3.07;;
10653;SDS011;5375;51.250;6.776;2024-01-30T01:41:31;3.60;;;3.20;;
10653;SDS011;5375;51.250;6.776;2024-01-30T01:43:58;3.47;;;3.10;;
10653;SDS011;5375;51.250;6.776;2024-01-30T01:46:26;3.83;;;3.20;;
10653;SDS011;5375;51.250;6.776;2024-01-30T01:48:52;4.30;;;3.20;;
10653;SDS011;5375;51.250;6.776;2024-01-30T01:51:19;4.63;;;3.30;;
10653;SDS011;5375;51.250;6.776;2024-01-30T01:53:45;3.90;;;3.20;;
10653;SDS011;5375;51.250;6.776;2024-01-30T01:56:10;3.87;;;3.00;;
10653;SDS011;5375;51.250;6.776;2024-01-30T01:58:36;3.77;;;3.03;;
10653;SDS011;5375;51.250;6.776;2024-01-30T02:01:03;4.47;;;3.60;;
10653;SDS011;5375;51.250;6.776;2024-01-30T02:03:30;4.87;;;3.37;;
10653;SDS011;5375;51.250;6.776;2024-01-30T02:05:56;6.03;;;3.00;;
10653;SDS011;5375;51.250;6.776;2024-01-30T02:08:22;4.07;;;3.50;;
10653;SDS011;5375;51.250;6.776;2024-01-30T02:10:49;4.33;;;3.40;;
10653;SDS011;5375;51.250;6.776;2024-01-30T02:13:15;4.37;;;3.00;;
10653;SDS011;5375;51.250;6.776;2024-01-30T02:15:40;5.13;;;3.60;;
10653;SDS011;5375;51.250;6.776;2024-01-30T02:18:06;3.63;;;3.30;;
10653;SDS011;5375;51.250;6.776;2024-01-30T02:20:31;5.70;;;3.23;;
10653;SDS011;5375;51.250;6.776;2024-01-30T02:23:00;3.47;;;3.17;;
10653;SDS011;5375;51.250;6.776;2024-01-30T02:25:34;3.77;;;3.20;;
10653;SDS011;5375;51.250;6.776;2024-01-30T02:28:14;5.93;;;3.60;;
10653;SDS011;5375;51.250;6.776;2024-01-30T02:30:40;4.17;;;3.30;;
10653;SDS011;5375;51.250;6.776;2024-01-30T02:33:07;4.83;;;3.40;;
10653;SDS011;5375;51.250;6.776;2024-01-30T02:35:33;6.43;;;3.30;;
10653;SDS011;5375;51.250;6.776;2024-01-30T02:37:59;6.50;;;3.40;;
10653;SDS011;5375;51.250;6.776;2024-01-30T02:40:25;14.03;;;3.60;;
10653;SDS011;5375;51.250;6.776;2024-01-30T02:42:50;5.90;;;3.43;;
10653;SDS011;5375;51.250;6.776;2024-01-30T02:45:16;6.13;;;3.47;;
10653;SDS011;5375;51.250;6.776;2024-01-30T02:47:42;3.47;;;3.03;;
10653;SDS011;5375;51.250;6.776;2024-01-30T02:50:08;7.77;;;3.60;;
10653;SDS011;5375;51.250;6.776;2024-01-30T02:52:34;4.90;;;3.27;;
10653;SDS011;5375;51.250;6.776;2024-01-30T02:54:59;7.90;;;3.53;;
10653;SDS011;5375;51.250;6.776;2024-01-30T02:57:25;4.67;;;3.67;;
10653;SDS011;5375;51.250;6.776;2024-01-30T02:59:51;4.83;;;3.40;;
10653;SDS011;5375;51.250;6.776;2024-01-30T03:02:17;5.10;;;3.47;;
10653;SDS011;5375;51.250;6.776;2024-01-30T03:04:43;4.57;;;3.47;;
10653;SDS011;5375;51.250;6.776;2024-01-30T03:07:08;4.83;;;3.40;;
10653;SDS011;5375;51.250;6.776;2024-01-30T03:09:34;5.40;;;3.43;;
10653;SDS011;5375;51.250;6.776;2024-01-30T03:12:01;3.97;;;3.20;;
10653;SDS011;5375;51.250;6.776;2024-01-30T03:14:28;4.53;;;3.20;;
10653;SDS011;5375;51.250;6.776;2024-01-30T03:16:55;5.00;;;3.50;;
10653;SDS011;5375;51.250;6.776;2024-01-30T03:19:21;4.30;;;3.53;;
10653;SDS011;5375;51.250;6.776;2024-01-30T03:21:46;4.63;;;3.50;;
10653;SDS011;5375;51.250;6.776;2024-01-30T03:24:12;4.33;;;3.33;;
10653;SDS011;5375;51.250;6.776;2024-01-30T03:26:37;4.30;;;3.23;;
10653;SDS011;5375;51.250;6.776;2024-01-30T03:29:03;4.90;;;3.50;;
10653;SDS011;5375;51.250;6.776;2024-01-30T03:31:29;4.47;;;3.70;;
10653;SDS011;5375;51.250;6.776;2024-01-30T03:33:54;4.80;;;3.60;;
10653;SDS011;5375;51.250;6.776;2024-01-30T03:36:20;5.87;;;3.70;;
10653;SDS011;5375;51.250;6.776;2024-01-30T03:38:45;3.90;;;3.50;;
10653;SDS011;5375;51.250;6.776;2024-01-30T03:41:11;5.33;;;3.73;;
10653;SDS011;5375;51.250;6.776;2024-01-30T03:43:37;5.57;;;3.80;;
10653;SDS011;5375;51.250;6.776;2024-01-30T03:46:02;4.63;;;3.90;;
10653;SDS011;5375;51.250;6.776;2024-01-30T03:48:29;4.77;;;3.27;;
10653;SDS011;5375;51.250;6.776;2024-01-30T03:50:54;6.70;;;3.23;;
10653;SDS011;5375;51.250;6.776;2024-01-30T03:53:20;3.90;;;3.40;;
10653;SDS011;5375;51.250;6.776;2024-01-30T03:55:46;4.03;;;3.37;;
10653;SDS011;5375;51.250;6.776;2024-01-30T03:58:11;5.40;;;3.80;;
10653;SDS011;5375;51.250;6.776;2024-01-30T04:00:37;11.33;;;3.70;;
10653;SDS011;5375;51.250;6.776;2024-01-30T04:03:02;9.87;;;3.90;;
10653;SDS011;5375;51.250;6.776;2024-01-30T04:05:28;7.40;;;3.80;;
10653;SDS011;5375;51.250;6.776;2024-01-30T04:07:54;6.90;;;3.50;;
10653;SDS011;5375;51.250;6.776;2024-01-30T04:10:19;4.47;;;3.47;;
10653;SDS011;5375;51.250;6.776;2024-01-30T04:12:45;4.60;;;3.60;;
10653;SDS011;5375;51.250;6.776;2024-01-30T04:15:11;4.10;;;3.50;;
10653;SDS011;5375;51.250;6.776;2024-01-30T04:17:38;4.63;;;3.73;;
10653;SDS011;5375;51.250;6.776;2024-01-30T04:20:04;4.73;;;3.73;;
10653;SDS011;5375;51.250;6.776;2024-01-30T04:22:30;3.97;;;3.20;;
10653;SDS011;5375;51.250;6.776;2024-01-30T04:24:56;4.00;;;3.50;;
10653;SDS011;5375;51.250;6.776;2024-01-30T04:27:22;5.07;;;3.80;;
10653;SDS011;5375;51.250;6.776;2024-01-30T04:29:47;3.97;;;3.10;;
10653;SDS011;5375;51.250;6.776;2024-01-30T04:32:13;6.13;;;3.50;;
10653;SDS011;5375;51.250;6.776;2024-01-30T04:34:39;3.93;;;3.30;;
10653;SDS011;5375;51.250;6.776;2024-01-30T04:37:04;5.23;;;3.40;;
10653;SDS011;5375;51.250;6.776;2024-01-30T04:39:30;5.20;;;3.60;;
10653;SDS011;5375;51.250;6.776;2024-01-30T04:41:57;4.37;;;3.30;;
10653;SDS011;5375;51.250;6.776;2024-01-30T04:44:24;5.40;;;3.60;;
10653;SDS011;5375;51.250;6.776;2024-01-30T04:46:49;4.90;;;3.83;;
10653;SDS011;5375;51.250;6.776;2024-01-30T04:49:15;4.13;;;3.43;;
10653;SDS011;5375;51.250;6.776;2024-01-30T04:51:42;5.20;;;3.83;;
10653;SDS011;5375;51.250;6.776;2024-01-30T04:54:08;4.23;;;3.40;;
10653;SDS011;5375;51.250;6.776;2024-01-30T04:56:33;5.47;;;3.50;;
10653;SDS011;5375;51.250;6.776;2024-01-30T04:59:02;4.67;;;3.50;;
10653;SDS011;5375;51.250;6.776;2024-01-30T05:01:28;5.47;;;3.40;;
10653;SDS011;5375;51.250;6.776;2024-01-30T05:03:53;4.23;;;3.40;;
10653;SDS011;5375;51.250;6.776;2024-01-30T05:06:28;6.40;;;3.50;;
10653;SDS011;5375;51.250;6.776;2024-01-30T05:08:54;3.97;;;3.03;;
10653;SDS011;5375;51.250;6.776;2024-01-30T05:11:19;6.60;;;3.30;;
10653;SDS011;5375;51.250;6.776;2024-01-30T05:13:45;7.67;;;3.27;;
10653;SDS011;5375;51.250;6.776;2024-01-30T05:16:11;6.13;;;3.77;;
10653;SDS011;5375;51.250;6.776;2024-01-30T05:18:39;5.63;;;3.10;;
10653;SDS011;5375;51.250;6.776;2024-01-30T05:21:05;4.97;;;3.40;;
10653;SDS011;5375;51.250;6.776;2024-01-30T05:23:30;6.00;;;3.40;;
10653;SDS011;5375;51.250;6.776;2024-01-30T05:25:56;8.07;;;4.00;;
10653;SDS011;5375;51.250;6.776;2024-01-30T05:28:22;6.30;;;3.60;;
10653;SDS011;5375;51.250;6.776;2024-01-30T05:30:47;4.60;;;3.10;;
10653;SDS011;5375;51.250;6.776;2024-01-30T05:33:13;4.80;;;3.40;;
10653;SDS011;5375;51.250;6.776;2024-01-30T05:35:39;4.70;;;3.30;;
10653;SDS011;5375;51.250;6.776;2024-01-30T05:38:04;7.30;;;3.17;;
10653;SDS011;5375;51.250;6.776;2024-01-30T05:40:30;5.40;;;3.50;;
10653;SDS011;5375;51.250;6.776;2024-01-30T05:42:56;6.97;;;3.63;;
10653;SDS011;5375;51.250;6.776;2024-01-30T05:45:25;5.63;;;3.43;;
10653;SDS011;5375;51.250;6.776;2024-01-30T05:47:51;4.67;;;3.27;;
10653;SDS011;5375;51.250;6.776;2024-01-30T05:50:17;4.20;;;3.20;;
10653;SDS011;5375;51.250;6.776;2024-01-30T05:52:43;6.13;;;3.23;;
10653;SDS011;5375;51.250;6.776;2024-01-30T05:55:09;5.03;;;3.60;;
10653;SDS011;5375;51.250;6.776;2024-01-30T05:57:35;4.30;;;3.30;;
10653;SDS011;5375;51.250;6.776;2024-01-30T06:00:00;4.87;;;3.10;;
10653;SDS011;5375;51.250;6.776;2024-01-30T06:02:26;4.03;;;3.30;;
10653;SDS011;5375;51.250;6.776;2024-01-30T06:04:52;5.33;;;3.20;;
10653;SDS011;5375;51.250;6.776;2024-01-30T06:07:17;4.53;;;3.73;;
10653;SDS011;5375;51.250;6.776;2024-01-30T06:09:43;5.57;;;3.10;;
10653;SDS011;5375;51.250;6.776;2024-01-30T06:12:09;5.37;;;3.43;;
10653;SDS011;5375;51.250;6.776;2024-01-30T06:14:36;5.87;;;3.83;;
10653;SDS011;5375;51.250;6.776;2024-01-30T06:17:02;5.67;;;3.13;;
10653;SDS011;5375;51.250;6.776;2024-01-30T06:19:28;4.30;;;3.43;;
10653;SDS011;5375;51.250;6.776;2024-01-30T06:21:53;6.87;;;3.77;;
10653;SDS011;5375;51.250;6.776;2024-01-30T06:24:19;4.23;;;3.20;;
10653;SDS011;5375;51.250;6.776;2024-01-30T06:26:44;4.83;;;3.50;;
10653;SDS011;5375;51.250;6.776;2024-01-30T06:29:10;5.17;;;3.20;;
10653;SDS011;5375;51.250;6.776;2024-01-30T06:31:40;3.97;;;3.27;;
10653;SDS011;5375;51.250;6.776;2024-01-30T06:34:06;3.83;;;3.37;;
10653;SDS011;5375;51.250;6.776;2024-01-30T06:36:32;5.93;;;3.07;;
10653;SDS011;5375;51.250;6.776;2024-01-30T06:38:58;5.80;;;3.67;;
10653;SDS011;5375;51.250;6.776;2024-01-30T06:41:24;4.10;;;3.20;;
10653;SDS011;5375;51.250;6.776;2024-01-30T06:43:49;3.97;;;3.30;;
10653;SDS011;5375;51.250;6.776;2024-01-30T06:46:15;4.57;;;3.10;;
10653;SDS011;5375;51.250;6.776;2024-01-30T06:48:41;3.83;;;2.87;;
10653;SDS011;5375;51.250;6.776;2024-01-30T06:51:09;3.70;;;2.90;;
10653;SDS011;5375;51.250;6.776;2024-01-30T06:53:35;5.23;;;3.17;;
10653;SDS011;5375;51.250;6.776;2024-01-30T06:56:01;5.97;;;2.83;;
10653;SDS011;5375;51.250;6.776;2024-01-30T06:58:26;3.80;;;2.83;;
10653;SDS011;5375;51.250;6.776;2024-01-30T07:00:52;3.60;;;2.80;;
10653;SDS011;5375;51.250;6.776;2024-01-30T07:03:18;6.00;;;3.40;;
10653;SDS011;5375;51.250;6.776;2024-01-30T07:05:43;3.50;;;3.20;;
10653;SDS011;5375;51.250;6.776;2024-01-30T07:08:09;2.90;;;2.60;;
10653;SDS011;5375;51.250;6.776;2024-01-30T07:10:34;7.27;;;2.93;;
10653;SDS011;5375;51.250;6.776;2024-01-30T07:13:00;3.30;;;3.00;;
10653;SDS011;5375;51.250;6.776;2024-01-30T07:15:26;3.40;;;3.00;;
10653;SDS011;5375;51.250;6.776;2024-01-30T07:17:52;3.67;;;2.90;;
10653;SDS011;5375;51.250;6.776;2024-01-30T07:20:17;5.30;;;3.00;;
10653;SDS011;5375;51.250;6.776;2024-01-30T07:22:45;3.37;;;2.80;;
10653;SDS011;5375;51.250;6.776;2024-01-30T07:25:11;5.47;;;3.40;;
10653;SDS011;5375;51.250;6.776;2024-01-30T07:27:36;4.23;;;2.70;;
10653;SDS011;5375;51.250;6.776;2024-01-30T07:30:02;4.27;;;3.00;;
10653;SDS011;5375;51.250;6.776;2024-01-30T07:32:28;5.00;;;3.10;;
10653;SDS011;5375;51.250;6.776;2024-01-30T07:34:53;3.20;;;2.90;;
10653;SDS011;5375;51.250;6.776;2024-01-30T07:37:19;3.30;;;3.00;;
10653;SDS011;5375;51.250;6.776;2024-01-30T07:39:45;4.20;;;3.47;;
10653;SDS011;5375;51.250;6.776;2024-01-30T07:42:10;4.40;;;3.23;;
10653;SDS011;5375;51.250;6.776;2024-01-30T07:44:36;4.20;;;2.90;;
10653;SDS011;5375;51.250;6.776;2024-01-30T07:47:01;4.77;;;3.60;;
10653;SDS011;5375;51.250;6.776;2024-01-30T07:49:28;5.30;;;3.20;;
10653;SDS011;5375;51.250;6.776;2024-01-30T07:51:53;3.43;;;2.63;;
10653;SDS011;5375;51.250;6.776;2024-01-30T07:54:19;3.07;;;2.77;;
10653;SDS011;5375;51.250;6.776;2024-01-30T07:56:44;3.40;;;2.73;;
10653;SDS011;5375;51.250;6.776;2024-01-30T07:59:10;3.33;;;2.70;;
10653;SDS011;5375;51.250;6.776;2024-01-30T08:01:36;3.40;;;2.80;;
10653;SDS011;5375;51.250;6.776;2024-01-30T08:04:02;4.30;;;3.10;;
10653;SDS011;5375;51.250;6.776;2024-01-30T08:06:28;3.37;;;3.03;;
10653;SDS011;5375;51.250;6.776;2024-01-30T08:08:54;3.13;;;2.67;;
10653;SDS011;5375;51.250;6.776;2024-01-30T08:11:20;3.17;;;2.70;;
10653;SDS011;5375;51.250;6.776;2024-01-30T08:13:51;4.13;;;3.00;;
10653;SDS011;5375;51.250;6.776;2024-01-30T08:16:17;4.33;;;3.10;;
10653;SDS011;5375;51.250;6.776;2024-01-30T08:18:43;4.10;;;2.70;;
10653;SDS011;5375;51.250;6.776;2024-01-30T08:21:09;3.23;;;2.80;;
10653;SDS011;5375;51.250;6.776;2024-01-30T08:23:37;3.70;;;2.70;;
10653;SDS011;5375;51.250;6.776;2024-01-30T08:26:04;3.47;;;2.70;;
10653;SDS011;5375;51.250;6.776;2024-01-30T08:28:31;3.20;;;2.90;;
10653;SDS011;5375;51.250;6.776;2024-01-30T08:30:57;6.20;;;2.87;;
10653;SDS011;5375;51.250;6.776;2024-01-30T08:33:23;3.70;;;3.00;;
10653;SDS011;5375;51.250;6.776;2024-01-30T08:35:49;4.13;;;2.90;;
10653;SDS011;5375;51.250;6.776;2024-01-30T08:38:15;3.83;;;2.77;;
10653;SDS011;5375;51.250;6.776;2024-01-30T08:40:41;3.43;;;2.60;;
10653;SDS011;5375;51.250;6.776;2024-01-30T08:43:07;3.83;;;3.00;;
10653;SDS011;5375;51.250;6.776;2024-01-30T08:45:35;4.63;;;3.27;;
10653;SDS011;5375;51.250;6.776;2024-01-30T08:48:00;3.90;;;2.97;;
10653;SDS011;5375;51.250;6.776;2024-01-30T08:50:26;5.10;;;3.00;;
10653;SDS011;5375;51.250;6.776;2024-01-30T08:52:52;5.33;;;2.90;;
10653;SDS011;5375;51.250;6.776;2024-01-30T08:55:17;3.80;;;2.83;;
10653;SDS011;5375;51.250;6.776;2024-01-30T08:57:43;4.50;;;3.43;;
10653;SDS011;5375;51.250;6.776;2024-01-30T09:00:09;4.30;;;2.93;;
10653;SDS011;5375;51.250;6.776;2024-01-30T09:02:35;3.53;;;2.90;;
10653;SDS011;5375;51.250;6.776;2024-01-30T09:05:00;3.77;;;2.83;;
10653;SDS011;5375;51.250;6.776;2024-01-30T09:07:26;3.23;;;2.73;;
10653;SDS011;5375;51.250;6.776;2024-01-30T09:09:52;4.97;;;3.10;;
10653;SDS011;5375;51.250;6.776;2024-01-30T09:12:18;4.03;;;2.90;;
10653;SDS011;5375;51.250;6.776;2024-01-30T09:14:43;4.17;;;2.80;;
10653;SDS011;5375;51.250;6.776;2024-01-30T09:17:09;3.00;;;2.67;;
10653;SDS011;5375;51.250;6.776;2024-01-30T09:19:34;4.70;;;3.17;;
10653;SDS011;5375;51.250;6.776;2024-01-30T09:22:00;4.73;;;2.67;;
10653;SDS011;5375;51.250;6.776;2024-01-30T09:24:26;4.17;;;2.83;;
10653;SDS011;5375;51.250;6.776;2024-01-30T09:26:52;5.40;;;3.03;;
10653;SDS011;5375;51.250;6.776;2024-01-30T09:29:18;3.87;;;2.63;;
10653;SDS011;5375;51.250;6.776;2024-01-30T09:31:44;5.13;;;2.30;;
10653;SDS011;5375;51.250;6.776;2024-01-30T09:34:10;3.03;;;2.63;;
10653;SDS011;5375;51.250;6.776;2024-01-30T09:36:36;3.60;;;2.63;;
10653;SDS011;5375;51.250;6.776;2024-01-30T09:39:01;5.83;;;2.93;;
10653;SDS011;5375;51.250;6.776;2024-01-30T09:41:28;4.27;;;2.80;;
10653;SDS011;5375;51.250;6.776;2024-01-30T09:43:57;4.77;;;2.80;;
10653;SDS011;5375;51.250;6.776;2024-01-30T09:46:23;5.07;;;2.70;;
10653;SDS011;5375;51.250;6.776;2024-01-30T09:48:53;3.73;;;2.83;;
10653;SDS011;5375;51.250;6.776;2024-01-30T09:51:20;3.33;;;2.70;;
10653;SDS011;5375;51.250;6.776;2024-01-30T09:53:47;4.87;;;2.93;;
10653;SDS011;5375;51.250;6.776;2024-01-30T09:56:14;4.20;;;2.90;;
10653;SDS011;5375;51.250;6.776;2024-01-30T09:58:39;3.90;;;2.67;;
10653;SDS011;5375;51.250;6.776;2024-01-30T10:01:05;3.40;;;2.30;;
10653;SDS011;5375;51.250;6.776;2024-01-30T10:03:31;3.47;;;2.77;;
10653;SDS011;5375;51.250;6.776;2024-01-30T10:05:57;3.43;;;2.50;;
10653;SDS011;5375;51.250;6.776;2024-01-30T10:08:23;3.63;;;2.60;;
10653;SDS011;5375;51.250;6.776;2024-01-30T10:10:49;3.57;;;2.80;;
10653;SDS011;5375;51.250;6.776;2024-01-30T10:13:17;5.07;;;3.27;;
10653;SDS011;5375;51.250;6.776;2024-01-30T10:15:43;4.27;;;2.70;;
10653;SDS011;5375;51.250;6.776;2024-01-30T10:18:10;2.90;;;2.30;;
10653;SDS011;5375;51.250;6.776;2024-01-30T10:20:36;3.93;;;2.40;;
10653;SDS011;5375;51.250;6.776;2024-01-30T10:23:02;2.80;;;2.50;;
10653;SDS011;5375;51.250;6.776;2024-01-30T10:25:28;2.93;;;2.40;;
10653;SDS011;5375;51.250;6.776;2024-01-30T10:27:55;5.33;;;2.67;;
10653;SDS011;5375;51.250;6.776;2024-01-30T10:30:21;4.17;;;2.60;;
10653;SDS011;5375;51.250;6.776;2024-01-30T10:32:48;3.53;;;2.63;;
10653;SDS011;5375;51.250;6.776;2024-01-30T10:35:14;5.13;;;2.60;;
10653;SDS011;5375;51.250;6.776;2024-01-30T10:37:43;4.00;;;2.83;;
10653;SDS011;5375;51.250;6.776;2024-01-30T10:40:09;4.03;;;2.63;;
10653;SDS011;5375;51.250;6.776;2024-01-30T10:42:38;3.57;;;2.43;;
10653;SDS011;5375;51.250;6.776;2024-01-30T10:45:09;3.03;;;2.57;;
10653;SDS011;5375;51.250;6.776;2024-01-30T10:47:43;3.30;;;2.40;;
10653;SDS011;5375;51.250;6.776;2024-01-30T10:50:13;3.50;;;2.50;;
10653;SDS011;5375;51.250;6.776;2024-01-30T10:52:40;5.87;;;2.50;;
10653;SDS011;5375;51.250;6.776;2024-01-30T10:55:07;2.43;;;2.17;;
10653;SDS011;5375;51.250;6.776;2024-01-30T10:57:37;3.97;;;2.57;;
10653;SDS011;5375;51.250;6.776;2024-01-30T11:00:09;4.30;;;2.70;;
10653;SDS011;5375;51.250;6.776;2024-01-30T11:02:40;2.50;;;2.30;;
10653;SDS011;5375;51.250;6.776;2024-01-30T11:05:08;8.17;;;2.77;;
10653;SDS011;5375;51.250;6.776;2024-01-30T11:07:34;4.00;;;2.60;;
10653;SDS011;5375;51.250;6.776;2024-01-30T11:10:00;3.83;;;2.50;;
10653;SDS011;5375;51.250;6.776;2024-01-30T11:12:28;3.70;;;2.90;;
10653;SDS011;5375;51.250;6.776;2024-01-30T11:15:05;3.37;;;2.50;;
10653;SDS011;5375;51.250;6.776;2024-01-30T11:20:16;3.70;;;2.33;;
10653;SDS011;5375;51.250;6.776;2024-01-30T11:22:45;4.97;;;2.87;;
10653;SDS011;5375;51.250;6.776;2024-01-30T11:25:15;3.73;;;2.70;;
10653;SDS011;5375;51.250;6.776;2024-01-30T11:27:42;3.10;;;2.33;;
10653;SDS011;5375;51.250;6.776;2024-01-30T11:30:08;3.23;;;2.43;;
10653;SDS011;5375;51.250;6.776;2024-01-30T11:32:34;2.87;;;2.40;;
10653;SDS011;5375;51.250;6.776;2024-01-30T11:35:02;5.53;;;2.43;;
10653;SDS011;5375;51.250;6.776;2024-01-30T11:37:30;3.13;;;2.50;;
10653;SDS011;5375;51.250;6.776;2024-01-30T11:39:56;4.17;;;2.43;;
10653;SDS011;5375;51.250;6.776;2024-01-30T11:42:23;3.63;;;2.47;;
10653;SDS011;5375;51.250;6.776;2024-01-30T11:44:51;4.30;;;2.77;;
10653;SDS011;5375;51.250;6.776;2024-01-30T11:47:17;5.50;;;2.50;;
10653;SDS011;5375;51.250;6.776;2024-01-30T11:49:43;3.87;;;2.40;;
10653;SDS011;5375;51.250;6.776;2024-01-30T11:52:09;5.17;;;2.97;;
10653;SDS011;5375;51.250;6.776;2024-01-30T11:54:35;3.47;;;2.77;;
10653;SDS011;5375;51.250;6.776;2024-01-30T11:57:01;6.37;;;2.30;;
10653;SDS011;5375;51.250;6.776;2024-01-30T11:59:26;5.07;;;2.60;;
10653;SDS011;5375;51.250;6.776;2024-01-30T12:01:52;4.47;;;2.53;;
10653;SDS011;5375;51.250;6.776;2024-01-30T12:04:18;2.93;;;2.40;;
10653;SDS011;5375;51.250;6.776;2024-01-30T12:06:43;4.00;;;2.57;;
10653;SDS011;5375;51.250;6.776;2024-01-30T12:09:09;3.00;;;2.20;;
10653;SDS011;5375;51.250;6.776;2024-01-30T12:11:43;5.07;;;2.43;;
10653;SDS011;5375;51.250;6.776;2024-01-30T12:14:10;3.43;;;2.50;;
10653;SDS011;5375;51.250;6.776;2024-01-30T12:16:37;2.90;;;2.40;;
10653;SDS011;5375;51.250;6.776;2024-01-30T12:19:02;3.57;;;2.53;;
10653;SDS011;5375;51.250;6.776;2024-01-30T12:21:28;3.13;;;2.50;;
10653;SDS011;5375;51.250;6.776;2024-01-30T12:23:56;3.93;;;2.60;;
10653;SDS011;5375;51.250;6.776;2024-01-30T12:26:23;2.93;;;2.53;;
10653;SDS011;5375;51.250;6.776;2024-01-30T12:28:50;3.70;;;2.43;;
10653;SDS011;5375;51.250;6.776;2024-01-30T12:31:25;3.23;;;2.57;;
10653;SDS011;5375;51.250;6.776;2024-01-30T12:33:52;2.67;;;2.40;;
10653;SDS011;5375;51.250;6.776;2024-01-30T12:36:18;2.90;;;2.60;;
10653;SDS011;5375;51.250;6.776;2024-01-30T12:38:44;3.43;;;2.70;;
10653;SDS011;5375;51.250;6.776;2024-01-30T12:41:10;3.43;;;2.50;;
10653;SDS011;5375;51.250;6.776;2024-01-30T12:43:36;2.93;;;2.30;;
10653;SDS011;5375;51.250;6.776;2024-01-30T12:46:02;3.23;;;2.60;;
10653;SDS011;5375;51.250;6.776;2024-01-30T12:48:28;2.93;;;2.60;;
10653;SDS011;5375;51.250;6.776;2024-01-30T12:50:54;3.93;;;2.20;;
10653;SDS011;5375;51.250;6.776;2024-01-30T12:53:21;3.80;;;2.50;;
10653;SDS011;5375;51.250;6.776;2024-01-30T12:55:47;2.70;;;2.20;;
10653;SDS011;5375;51.250;6.776;2024-01-30T12:58:12;2.57;;;2.27;;
10653;SDS011;5375;51.250;6.776;2024-01-30T13:00:38;3.80;;;2.27;;
10653;SDS011;5375;51.250;6.776;2024-01-30T13:03:03;3.33;;;2.60;;
10653;SDS011;5375;51.250;6.776;2024-01-30T13:05:29;3.53;;;2.33;;
10653;SDS011;5375;51.250;6.776;2024-01-30T13:07:55;3.60;;;2.37;;
10653;SDS011;5375;51.250;6.776;2024-01-30T13:10:22;2.80;;;2.30;;
10653;SDS011;5375;51.250;6.776;2024-01-30T13:12:48;4.23;;;2.50;;
10653;SDS011;5375;51.250;6.776;2024-01-30T13:15:13;2.57;;;2.30;;
10653;SDS011;5375;51.250;6.776;2024-01-30T13:17:40;3.00;;;2.00;;
10653;SDS011;5375;51.250;6.776;2024-01-30T13:20:07;3.80;;;2.27;;
10653;SDS011;5375;51.250;6.776;2024-01-30T13:22:33;2.67;;;2.43;;
10653;SDS011;5375;51.250;6.776;2024-01-30T13:24:59;3.87;;;2.10;;
10653;SDS011;5375;51.250;6.776;2024-01-30T13:27:24;2.93;;;2.43;;
10653;SDS011;5375;51.250;6.776;2024-01-30T13:29:50;2.70;;;2.40;;
10653;SDS011;5375;51.250;6.776;2024-01-30T13:32:16;3.17;;;2.30;;
10653;SDS011;5375;51.250;6.776;2024-01-30T13:34:41;3.83;;;2.03;;
10653;SDS011;5375;51.250;6.776;2024-01-30T13:37:08;3.13;;;2.30;;
10653;SDS011;5375;51.250;6.776;2024-01-30T13:39:33;3.60;;;2.17;;
10653;SDS011;5375;51.250;6.776;2024-01-30T13:41:59;3.20;;;2.30;;
10653;SDS011;5375;51.250;6.776;2024-01-30T13:44:25;3.50;;;2.23;;
10653;SDS011;5375;51.250;6.776;2024-01-30T13:46:50;5.10;;;2.30;;
10653;SDS011;5375;51.250;6.776;2024-01-30T13:49:16;3.30;;;2.40;;
10653;SDS011;5375;51.250;6.776;2024-01-30T13:51:41;2.97;;;2.30;;
10653;SDS011;5375;51.250;6.776;2024-01-30T13:54:07;2.50;;;2.30;;
10653;SDS011;5375;51.250;6.776;2024-01-30T13:56:33;2.97;;;2.20;;
10653;SDS011;5375;51.250;6.776;2024-01-30T13:58:59;2.57;;;2.00;;
10653;SDS011;5375;51.250;6.776;2024-01-30T14:01:26;3.30;;;2.30;;
10653;SDS011;5375;51.250;6.776;2024-01-30T14:03:52;2.50;;;2.00;;
10653;SDS011;5375;51.250;6.776;2024-01-30T14:06:17;3.77;;;2.33;;
10653;SDS011;5375;51.250;6.776;2024-01-30T14:08:44;3.70;;;2.43;;
10653;SDS011;5375;51.250;6.776;2024-01-30T14:11:09;2.83;;;2.43;;
10653;SDS011;5375;51.250;6.776;2024-01-30T14:13:35;4.27;;;2.20;;
10653;SDS011;5375;51.250;6.776;2024-01-30T14:16:00;3.60;;;2.23;;
10653;SDS011;5375;51.250;6.776;2024-01-30T14:18:26;2.97;;;2.07;;
10653;SDS011;5375;51.250;6.776;2024-01-30T14:20:52;4.10;;;2.50;;
10653;SDS011;5375;51.250;6.776;2024-01-30T14:23:22;3.87;;;2.30;;
10653;SDS011;5375;51.250;6.776;2024-01-30T14:25:47;2.67;;;2.20;;
10653;SDS011;5375;51.250;6.776;2024-01-30T14:28:13;2.67;;;2.10;;
10653;SDS011;5375;51.250;6.776;2024-01-30T14:30:39;2.37;;;2.00;;
10653;SDS011;5375;51.250;6.776;2024-01-30T14:33:05;6.13;;;2.27;;
10653;SDS011;5375;51.250;6.776;2024-01-30T14:35:31;4.20;;;1.93;;
10653;SDS011;5375;51.250;6.776;2024-01-30T14:38:00;3.80;;;1.90;;
10653;SDS011;5375;51.250;6.776;2024-01-30T14:40:26;5.07;;;2.20;;
10653;SDS011;5375;51.250;6.776;2024-01-30T14:42:52;3.57;;;2.50;;
10653;SDS011;5375;51.250;6.776;2024-01-30T14:45:20;3.50;;;2.00;;
10653;SDS011;5375;51.250;6.776;2024-01-30T14:47:47;3.93;;;2.20;;
10653;SDS011;5375;51.250;6.776;2024-01-30T14:50:12;5.67;;;2.10;;
10653;SDS011;5375;51.250;6.776;2024-01-30T14:52:38;5.50;;;2.70;;
10653;SDS011;5375;51.250;6.776;2024-01-30T14:55:05;2.90;;;2.00;;
10653;SDS011;5375;51.250;6.776;2024-01-30T14:57:31;2.67;;;2.20;;